Clifton, Virginia
Current Conditions -  °F | °C
As of 11:50 AM on Sunday 23 Nov 2014 (Local Time) from KHEF Reporting Station
Clear Clear  
Wind Chill: 48°   Ceiling: Unl
Heat Index: 48°   Visibility: 10mi
Dew Point: 25°   Wind: 0mph
Humidity: 40%   Direction: NA
Pressure: 30.18"   Gusts: NA
Location:  38.78°N, 77.39°W
Report Text: KHEF 231650Z 00000KT 10SM CLR 09/M04 A3018
Loading
Personal Weather Stations






























Interactive Weather Map New forecast layout! Learn more

10-Day Weather Forecast

Advertisements
Track Severe Weather on mobile